createdAt,value
2018-02-24T00:00:50.180Z,101846.95
2018-02-24T00:03:17.706Z,101847.88
2018-02-24T00:05:45.248Z,101857.34
2018-02-24T00:08:12.778Z,101859.02
2018-02-24T00:10:40.385Z,101856.55
2018-02-24T00:13:07.921Z,101852.41
2018-02-24T00:15:35.514Z,101852.97
2018-02-24T00:18:03.043Z,101858.90
2018-02-24T00:20:30.599Z,101858.62
2018-02-24T00:22:58.128Z,101855.88
2018-02-24T00:25:25.870Z,101865.81
2018-02-24T00:27:53.518Z,101867.42
2018-02-24T00:30:21.094Z,101861.80
2018-02-24T00:32:48.636Z,101861.56
2018-02-24T00:35:16.123Z,101860.27
2018-02-24T00:37:43.676Z,101857.61
2018-02-24T00:40:11.224Z,101855.05
2018-02-24T00:42:38.727Z,101857.39
2018-02-24T00:45:06.252Z,101855.58
2018-02-24T00:47:33.831Z,101865.00
2018-02-24T00:50:01.350Z,101871.25
2018-02-24T00:52:28.903Z,101869.61
2018-02-24T00:54:56.401Z,101872.65
2018-02-24T00:57:24.004Z,101864.98
2018-02-24T00:59:51.555Z,101866.68
2018-02-24T01:02:19.088Z,101861.49
2018-02-24T01:04:46.614Z,101865.84
2018-02-24T01:07:14.180Z,101867.50
2018-02-24T01:09:41.749Z,101862.76
2018-02-24T01:12:09.296Z,101870.31
2018-02-24T01:14:36.851Z,101872.52
2018-02-24T01:17:04.430Z,101872.61
2018-02-24T01:19:31.946Z,101874.42
2018-02-24T01:21:59.454Z,101871.98
2018-02-24T01:24:27.053Z,101868.14
2018-02-24T01:26:54.618Z,101868.87
2018-02-24T01:29:22.124Z,101864.75
2018-02-24T01:31:49.645Z,101864.11
2018-02-24T01:34:17.153Z,101863.72
2018-02-24T01:36:44.691Z,101861.23
2018-02-24T01:39:12.240Z,101853.73
2018-02-24T01:41:39.787Z,101859.02
2018-02-24T01:44:07.278Z,101859.81
2018-02-24T01:46:34.814Z,101857.51
2018-02-24T01:49:02.344Z,101852.62
2018-02-24T01:51:29.857Z,101847.05
2018-02-24T01:53:57.379Z,101845.70
2018-02-24T01:56:24.902Z,101854.97
2018-02-24T01:58:52.444Z,101851.20
2018-02-24T02:01:19.960Z,101845.27
2018-02-24T02:03:47.474Z,101851.20
2018-02-24T02:06:15.014Z,101847.73
2018-02-24T02:08:42.578Z,101849.66
2018-02-24T02:11:10.136Z,101843.26
2018-02-24T02:13:37.674Z,101843.50
2018-02-24T02:16:05.167Z,101840.63
2018-02-24T02:18:32.722Z,101843.52
2018-02-24T02:21:00.763Z,101839.87
2018-02-24T02:23:28.306Z,101846.01
2018-02-24T02:25:55.823Z,101840.47
2018-02-24T02:28:23.353Z,101840.05
2018-02-24T02:30:50.883Z,101829.09
2018-02-24T02:33:18.396Z,101833.80
2018-02-24T02:35:45.928Z,101835.98
2018-02-24T02:38:13.497Z,101824.64
2018-02-24T02:40:41.025Z,101826.87
2018-02-24T02:43:08.579Z,101832.95
2018-02-24T02:45:36.136Z,101831.55
2018-02-24T02:48:03.644Z,101831.55
2018-02-24T02:50:31.196Z,101829.72
2018-02-24T02:52:58.741Z,101833.78
2018-02-24T02:55:26.236Z,101844.85
2018-02-24T02:57:53.898Z,101848.28
2018-02-24T03:00:21.458Z,101845.36
2018-02-24T03:02:48.994Z,101853.51
2018-02-24T03:05:16.505Z,101859.36
2018-02-24T03:07:44.040Z,101852.58
2018-02-24T03:10:11.583Z,101852.38
2018-02-24T03:12:39.149Z,101853.31
2018-02-24T03:15:06.647Z,101853.00
2018-02-24T03:17:34.213Z,101857.91
2018-02-24T03:20:01.807Z,101868.48
2018-02-24T03:22:29.354Z,101867.08
2018-02-24T03:24:56.977Z,101874.98
2018-02-24T03:27:24.486Z,101881.34
2018-02-24T03:29:51.990Z,101882.48
2018-02-24T03:32:21.541Z,101886.77
2018-02-24T03:34:49.114Z,101885.95
2018-02-24T03:37:16.606Z,101883.68
2018-02-24T03:39:44.154Z,101888.17
2018-02-24T03:42:11.695Z,101896.70
2018-02-24T03:44:39.311Z,101889.05
2018-02-24T03:47:06.851Z,101894.97
2018-02-24T03:49:34.378Z,101896.91
2018-02-24T03:52:01.929Z,101902.76
2018-02-24T03:54:29.481Z,101906.45
2018-02-24T03:56:57.013Z,101896.30
2018-02-24T03:59:24.502Z,101894.51
2018-02-24T04:01:52.016Z,101900.23
2018-02-24T04:04:19.573Z,101903.19
2018-02-24T04:06:47.200Z,101909.66
2018-02-24T04:09:14.748Z,101914.47
2018-02-24T04:11:42.296Z,101913.17
2018-02-24T04:14:09.833Z,101914.59
2018-02-24T04:16:37.370Z,101917.78
2018-02-24T04:19:04.902Z,101908.30
2018-02-24T04:21:32.497Z,101918.28
2018-02-24T04:24:00.076Z,101918.28
2018-02-24T04:26:27.589Z,101921.95
2018-02-24T04:28:55.088Z,101920.44
2018-02-24T04:31:22.600Z,101930.06
2018-02-24T04:33:50.164Z,101932.83
2018-02-24T04:36:17.698Z,101933.13
2018-02-24T04:38:45.227Z,101936.13
2018-02-24T04:41:12.723Z,101931.83
2018-02-24T04:43:40.247Z,101939.58
2018-02-24T04:46:07.750Z,101942.63
2018-02-24T04:48:35.271Z,101945.98
2018-02-24T04:51:02.778Z,101940.41
2018-02-24T04:53:30.277Z,101935.89
2018-02-24T04:55:57.796Z,101942.13
2018-02-24T04:58:25.333Z,101941.20
2018-02-24T05:00:52.860Z,101942.75
2018-02-24T05:03:20.362Z,101939.16
2018-02-24T05:05:47.910Z,101946.02
2018-02-24T05:08:15.430Z,101941.69
2018-02-24T05:10:42.997Z,101939.89
2018-02-24T05:13:10.598Z,101943.33
2018-02-24T05:15:38.141Z,101940.50
2018-02-24T05:18:05.687Z,101941.97
2018-02-24T05:20:33.210Z,101948.22
2018-02-24T05:23:00.749Z,101943.33
2018-02-24T05:25:28.361Z,101943.55
2018-02-24T05:27:55.957Z,101952.02
2018-02-24T05:30:23.464Z,101941.75
2018-02-24T05:32:51.011Z,101944.41
2018-02-24T05:35:18.565Z,101939.88
2018-02-24T05:37:46.117Z,101944.65
2018-02-24T05:40:13.657Z,101942.63
2018-02-24T05:42:41.149Z,101936.02
2018-02-24T05:45:08.770Z,101938.95
2018-02-24T05:47:36.292Z,101940.63
2018-02-24T05:50:03.891Z,101935.41
2018-02-24T05:52:31.465Z,101943.28
2018-02-24T05:54:59.122Z,101946.68
2018-02-24T05:57:26.673Z,101943.02
2018-02-24T05:59:54.860Z,101954.88
2018-02-24T06:02:22.608Z,101953.24
2018-02-24T06:04:50.777Z,101951.99
2018-02-24T06:07:18.383Z,101956.83
2018-02-24T06:09:46.051Z,101957.53
2018-02-24T06:12:13.739Z,101954.34
2018-02-24T06:14:41.270Z,101957.65
2018-02-24T06:17:09.000Z,101959.17
2018-02-24T06:19:36.490Z,101965.77
2018-02-24T06:22:04.375Z,101968.27
2018-02-24T06:24:31.997Z,101976.47
2018-02-24T06:26:59.665Z,101978.65
2018-02-24T06:29:27.178Z,101983.56
2018-02-24T06:31:54.700Z,101984.00
2018-02-24T06:34:22.243Z,101991.49
2018-02-24T06:36:49.958Z,101994.84
2018-02-24T06:39:17.553Z,101985.75
2018-02-24T06:41:45.281Z,101982.82
2018-02-24T06:44:12.911Z,101990.08
2018-02-24T06:46:40.749Z,101998.27
2018-02-24T06:49:08.326Z,101993.54
2018-02-24T06:51:35.988Z,102003.27
2018-02-24T06:54:03.523Z,102005.95
2018-02-24T06:56:31.098Z,102018.77
2018-02-24T06:58:58.638Z,102021.92
2018-02-24T07:01:26.134Z,102021.77
2018-02-24T07:03:53.662Z,102020.66
2018-02-24T07:06:21.171Z,102027.94
2018-02-24T07:08:48.694Z,102024.33
2018-02-24T07:11:16.252Z,102027.69
2018-02-24T07:13:43.804Z,102029.35
2018-02-24T07:16:11.333Z,102021.19
2018-02-24T07:18:38.911Z,102020.78
2018-02-24T07:21:06.589Z,102018.58
2018-02-24T07:23:34.133Z,102014.51
2018-02-24T07:26:01.714Z,102020.35
2018-02-24T07:28:29.803Z,102013.81
2018-02-24T07:30:57.299Z,102015.93
2018-02-24T07:33:24.969Z,102018.80
2018-02-24T07:35:52.561Z,102025.95
2018-02-24T07:38:20.142Z,102028.05
2018-02-24T07:40:47.689Z,102035.36
2018-02-24T07:43:15.219Z,102033.44
2018-02-24T07:45:42.800Z,102032.20
2018-02-24T07:48:10.384Z,102031.45
2018-02-24T07:50:37.949Z,102030.65
2018-02-24T07:53:05.663Z,102031.94
2018-02-24T07:55:34.466Z,102038.17
2018-02-24T07:58:01.987Z,102036.25
2018-02-24T08:00:29.602Z,102034.89
2018-02-24T08:02:57.125Z,102045.27
2018-02-24T08:05:24.750Z,102043.00
2018-02-24T08:07:52.793Z,102040.78
2018-02-24T08:10:20.589Z,102039.64
2018-02-24T08:12:48.129Z,102036.64
2018-02-24T08:15:15.683Z,102039.64
2018-02-24T08:17:43.226Z,102038.83
2018-02-24T08:20:10.730Z,102033.77
2018-02-24T08:22:38.242Z,102040.64
2018-02-24T08:25:05.770Z,102036.81
2018-02-24T08:27:33.275Z,102034.91
2018-02-24T08:30:00.817Z,102032.11
2018-02-24T08:32:28.340Z,102032.74
2018-02-24T08:34:55.927Z,102035.79
2018-02-24T08:37:23.460Z,102039.91
2018-02-24T08:39:50.983Z,102037.86
2018-02-24T08:42:18.476Z,102038.06
2018-02-24T08:44:46.017Z,102034.13
2018-02-24T08:47:13.515Z,102037.66
2018-02-24T08:49:41.033Z,102039.01
2018-02-24T08:54:58.620Z,102040.30
2018-02-24T08:57:26.179Z,102043.11
2018-02-24T08:59:53.841Z,102043.64
2018-02-24T09:02:21.421Z,102051.05
2018-02-24T09:04:48.969Z,102038.91
2018-02-24T09:07:16.542Z,102047.48
2018-02-24T09:09:44.108Z,102049.46
2018-02-24T09:12:11.688Z,102039.70
2018-02-24T09:14:39.197Z,102043.37
2018-02-24T09:17:06.753Z,102040.08
2018-02-24T09:19:34.344Z,102040.02
2018-02-24T09:22:01.877Z,102038.71
2018-02-24T09:24:29.390Z,102036.42
2018-02-24T09:26:56.915Z,102032.98
2018-02-24T09:29:24.434Z,102038.04
2018-02-24T09:31:51.991Z,102035.88
2018-02-24T09:34:19.526Z,102036.25
2018-02-24T09:36:47.042Z,102040.14
2018-02-24T09:39:14.582Z,102033.86
2018-02-24T09:41:42.143Z,102046.45
2018-02-24T09:47:01.692Z,102038.03
2018-02-24T09:49:29.240Z,102037.19
2018-02-24T09:51:56.760Z,102038.25
2018-02-24T09:54:24.276Z,102032.89
2018-02-24T09:56:51.822Z,102035.41
2018-02-24T10:02:13.734Z,102044.02
2018-02-24T10:04:41.306Z,102045.69
2018-02-24T10:07:08.798Z,102052.71
2018-02-24T10:09:36.993Z,102041.93
2018-02-24T10:12:04.517Z,102054.33
2018-02-24T10:14:32.017Z,102046.45
2018-02-24T10:17:00.321Z,102052.08
2018-02-24T10:19:27.850Z,102035.12
2018-02-24T10:21:55.403Z,102045.80
2018-02-24T10:24:23.915Z,102052.91
2018-02-24T10:26:51.779Z,102051.24
2018-02-24T10:29:19.342Z,102054.45
2018-02-24T10:31:46.817Z,102039.59
2018-02-24T10:34:14.313Z,102033.02
2018-02-24T10:36:41.796Z,102043.20
2018-02-24T10:39:09.296Z,102045.61
2018-02-24T10:41:36.960Z,102039.37
2018-02-24T10:44:04.650Z,102049.77
2018-02-24T10:46:32.470Z,102041.75
2018-02-24T10:49:12.189Z,102030.30
2018-02-24T10:51:39.719Z,102034.09
2018-02-24T10:54:08.220Z,102029.52
2018-02-24T10:56:35.796Z,102037.16
2018-02-24T10:59:03.282Z,102035.50
2018-02-24T11:01:30.843Z,102030.73
2018-02-24T11:03:58.389Z,102026.83
2018-02-24T11:06:25.892Z,102033.47
2018-02-24T11:08:53.579Z,102022.69
2018-02-24T11:11:21.196Z,102017.71
2018-02-24T11:13:48.945Z,102027.52
2018-02-24T11:16:16.445Z,102027.56
2018-02-24T11:18:43.979Z,102028.89
2018-02-24T11:21:11.452Z,102026.55
2018-02-24T11:23:38.973Z,102012.65
2018-02-24T11:26:06.626Z,102031.62
2018-02-24T11:28:34.139Z,102009.05
2018-02-24T11:31:01.656Z,102032.61
2018-02-24T11:33:29.258Z,102026.53
2018-02-24T11:35:56.739Z,102031.02
2018-02-24T11:38:24.231Z,102028.55
2018-02-24T11:40:52.682Z,102034.96
2018-02-24T11:43:20.220Z,102028.91
2018-02-24T11:45:48.340Z,102031.64
2018-02-24T11:48:16.405Z,102020.30
2018-02-24T11:50:44.055Z,102024.42
2018-02-24T11:53:11.788Z,102031.20
2018-02-24T11:55:39.653Z,102021.20
2018-02-24T11:58:07.191Z,102021.86
2018-02-24T12:00:34.678Z,102024.00
2018-02-24T12:03:02.425Z,102023.30
2018-02-24T12:05:30.024Z,102040.42
2018-02-24T12:07:57.649Z,102027.02
2018-02-24T12:10:25.201Z,102020.48
2018-02-24T12:12:52.683Z,102014.83
2018-02-24T12:15:20.209Z,102030.69
2018-02-24T12:17:47.744Z,102030.95
2018-02-24T12:20:15.811Z,102032.06
2018-02-24T12:22:43.382Z,102032.75
2018-02-24T12:25:11.158Z,102027.58
2018-02-24T12:27:38.895Z,102012.97
2018-02-24T12:30:06.468Z,102040.53
2018-02-24T12:32:33.961Z,102032.27
2018-02-24T12:35:01.474Z,102031.84
2018-02-24T12:37:29.139Z,102034.38
2018-02-24T12:39:56.663Z,102047.59
2018-02-24T12:42:24.165Z,102038.15
2018-02-24T12:44:51.671Z,102041.48
2018-02-24T12:47:19.493Z,102038.82
2018-02-24T12:49:46.989Z,102028.17
2018-02-24T12:52:14.497Z,102028.99
2018-02-24T12:54:42.030Z,102019.97
2018-02-24T12:57:09.739Z,102030.49
2018-02-24T12:59:37.333Z,102010.31
2018-02-24T13:02:04.843Z,102036.00
2018-02-24T13:04:32.370Z,102024.25
2018-02-24T13:06:59.843Z,102022.33
2018-02-24T13:09:27.349Z,102035.72
2018-02-24T13:11:55.009Z,102017.25
2018-02-24T13:14:22.534Z,102023.72
2018-02-24T13:16:50.166Z,102027.34
2018-02-24T13:19:17.807Z,102024.55
2018-02-24T13:21:45.292Z,102014.78
2018-02-24T13:24:12.795Z,102025.11
2018-02-24T13:26:40.308Z,102023.72
2018-02-24T13:29:08.281Z,102020.30
2018-02-24T13:31:35.784Z,102021.78
2018-02-24T13:34:03.534Z,102021.66
2018-02-24T13:36:31.105Z,102019.55
2018-02-24T13:38:58.676Z,102013.32
2018-02-24T13:41:26.846Z,102012.25
2018-02-24T13:43:55.221Z,101990.70
2018-02-24T13:46:24.216Z,102019.91
2018-02-24T13:48:52.418Z,102020.61
2018-02-24T13:51:20.374Z,102015.75
2018-02-24T13:53:48.478Z,102027.77
2018-02-24T13:56:16.591Z,102014.14
2018-02-24T13:58:45.765Z,102019.22
2018-02-24T14:01:13.575Z,102021.01
2018-02-24T14:03:42.399Z,102032.86
2018-02-24T14:06:10.533Z,102016.77
2018-02-24T14:08:38.466Z,102018.47
2018-02-24T14:11:06.630Z,102018.33
2018-02-24T14:13:34.891Z,102016.96
2018-02-24T14:16:02.687Z,102019.34
2018-02-24T14:18:30.579Z,102022.09
2018-02-24T14:20:58.459Z,102019.97
2018-02-24T14:23:26.504Z,102012.00
2018-02-24T14:25:54.330Z,102024.39
2018-02-24T14:28:22.292Z,102017.73
2018-02-24T14:30:51.580Z,102017.59
2018-02-24T14:33:19.155Z,102020.58
2018-02-24T14:35:46.637Z,102014.43
2018-02-24T14:38:14.287Z,102011.00
2018-02-24T14:40:41.855Z,102008.45
2018-02-24T14:43:09.467Z,101996.67
2018-02-24T14:45:37.032Z,102004.45
2018-02-24T14:48:04.527Z,102004.89
2018-02-24T14:50:32.056Z,102020.91
2018-02-24T14:52:59.667Z,102013.58
2018-02-24T14:55:27.242Z,102017.97
2018-02-24T14:57:54.748Z,102026.20
2018-02-24T15:00:22.236Z,102018.39
2018-02-24T15:02:49.815Z,102017.80
2018-02-24T15:05:17.337Z,102019.15
2018-02-24T15:07:44.947Z,102020.69
2018-02-24T15:10:12.498Z,102014.25
2018-02-24T15:12:39.983Z,102012.97
2018-02-24T15:15:07.502Z,102019.25
2018-02-24T15:17:35.044Z,102017.27
2018-02-24T15:20:02.561Z,102022.31
2018-02-24T15:22:30.053Z,102012.97
2018-02-24T15:24:57.576Z,102022.46
2018-02-24T15:27:25.117Z,102014.20
2018-02-24T15:29:52.623Z,101981.63
2018-02-24T15:32:20.119Z,102021.34
2018-02-24T15:34:47.653Z,102022.08
2018-02-24T15:37:15.195Z,102026.94
2018-02-24T15:39:43.433Z,102028.89
2018-02-24T15:42:11.074Z,102033.33
2018-02-24T15:44:38.691Z,102032.37
2018-02-24T15:47:06.207Z,102028.77
2018-02-24T15:49:33.722Z,102035.12
2018-02-24T15:52:02.416Z,102032.70
2018-02-24T15:54:30.928Z,102037.00
2018-02-24T15:56:58.457Z,102034.73
2018-02-24T15:59:25.997Z,102042.18
2018-02-24T16:01:53.497Z,102044.09
2018-02-24T16:04:21.013Z,102036.66
2018-02-24T16:06:48.511Z,102031.59
2018-02-24T16:09:16.027Z,102026.98
2018-02-24T16:11:43.553Z,102055.10
2018-02-24T16:14:11.074Z,102048.89
2018-02-24T16:16:38.594Z,102044.61
2018-02-24T16:19:06.109Z,102047.75
2018-02-24T16:21:33.614Z,102046.48
2018-02-24T16:24:01.175Z,102045.62
2018-02-24T16:26:28.783Z,102046.34
2018-02-24T16:28:56.301Z,102055.15
2018-02-24T16:31:23.819Z,102054.00
2018-02-24T16:33:51.324Z,102062.69
2018-02-24T16:36:19.052Z,102050.52
2018-02-24T16:38:46.586Z,102063.38
2018-02-24T16:41:14.091Z,102064.00
2018-02-24T16:43:41.594Z,102062.77
2018-02-24T16:46:09.120Z,102063.61
2018-02-24T16:48:36.661Z,102070.97
2018-02-24T16:51:04.274Z,102067.05
2018-02-24T16:53:31.831Z,102073.58
2018-02-24T16:55:59.424Z,102068.83
2018-02-24T16:58:26.974Z,102080.39
2018-02-24T17:00:54.497Z,102081.28
2018-02-24T17:03:21.999Z,102080.45
2018-02-24T17:05:49.538Z,102087.54
2018-02-24T17:08:17.396Z,102076.07
2018-02-24T17:10:44.930Z,102085.70
2018-02-24T17:13:12.446Z,102082.91
2018-02-24T17:15:40.008Z,102074.59
2018-02-24T17:18:07.598Z,102092.50
2018-02-24T17:20:35.100Z,102096.92
2018-02-24T17:23:02.615Z,102094.03
2018-02-24T17:25:30.127Z,102092.22
2018-02-24T17:27:57.646Z,102098.42
2018-02-24T17:30:25.150Z,102112.55
2018-02-24T17:32:52.663Z,102114.20
2018-02-24T17:35:20.164Z,102107.33
2018-02-24T17:37:47.700Z,102110.33
2018-02-24T17:40:15.243Z,102112.63
2018-02-24T17:42:42.795Z,102117.13
2018-02-24T17:45:10.386Z,102117.67
2018-02-24T17:47:37.936Z,102122.17
2018-02-24T17:50:05.441Z,102118.58
2018-02-24T17:52:32.960Z,102119.27
2018-02-24T17:55:00.503Z,102115.91
2018-02-24T17:57:27.987Z,102122.09
2018-02-24T17:59:55.507Z,102124.77
2018-02-24T18:02:23.073Z,102123.22
2018-02-24T18:04:50.594Z,102120.41
2018-02-24T18:07:18.094Z,102119.75
2018-02-24T18:09:45.673Z,102123.98
2018-02-24T18:12:13.160Z,102128.94
2018-02-24T18:14:40.700Z,102121.97
2018-02-24T18:17:08.313Z,102131.34
2018-02-24T18:19:35.877Z,102132.77
2018-02-24T18:22:03.496Z,102142.98
2018-02-24T18:24:31.076Z,102153.30
2018-02-24T18:26:58.616Z,102151.05
2018-02-24T18:29:26.183Z,102145.95
2018-02-24T18:31:53.685Z,102149.98
2018-02-24T18:34:21.198Z,102141.66
2018-02-24T18:36:48.757Z,102145.45
2018-02-24T18:39:16.337Z,102154.44
2018-02-24T18:41:43.910Z,102153.61
2018-02-24T18:44:11.442Z,102154.77
2018-02-24T18:46:39.002Z,102151.89
2018-02-24T18:49:06.493Z,102130.64
2018-02-24T18:51:34.006Z,102154.08
2018-02-24T18:54:01.525Z,102155.88
2018-02-24T18:56:29.083Z,102157.06
2018-02-24T18:58:56.638Z,102155.57
2018-02-24T19:01:24.200Z,102144.03
2018-02-24T19:03:51.719Z,102150.24
2018-02-24T19:09:17.184Z,102158.89
2018-02-24T19:11:44.706Z,102169.95
2018-02-24T19:14:12.286Z,102165.25
2018-02-24T19:16:39.863Z,102170.13
2018-02-24T19:19:07.465Z,102177.92
2018-02-24T19:21:35.096Z,102176.81
2018-02-24T19:24:02.617Z,102179.69
2018-02-24T19:26:30.355Z,102177.79
2018-02-24T19:28:57.867Z,102173.67
2018-02-24T19:31:25.401Z,102173.53
2018-02-24T19:33:52.936Z,102166.73
2018-02-24T19:36:20.458Z,102172.47
2018-02-24T19:38:48.151Z,102185.22
2018-02-24T19:41:15.669Z,102184.35
2018-02-24T19:43:43.175Z,102181.04
2018-02-24T19:46:10.652Z,102183.63
2018-02-24T19:48:38.196Z,102184.20
2018-02-24T19:51:05.740Z,102179.69
2018-02-24T19:53:33.294Z,102181.91
2018-02-24T19:56:00.796Z,102179.77
2018-02-24T19:58:28.299Z,102181.30
2018-02-24T20:00:55.871Z,102185.45
2018-02-24T20:03:23.409Z,102186.17
2018-02-24T20:05:50.910Z,102193.52
2018-02-24T20:08:18.394Z,102190.01
2018-02-24T20:10:45.957Z,102200.47
2018-02-24T20:13:13.477Z,102195.74
2018-02-24T20:15:40.973Z,102193.31
2018-02-24T20:18:08.497Z,102189.66
2018-02-24T20:20:36.032Z,102200.83
2018-02-24T20:23:03.573Z,102196.60
2018-02-24T20:25:31.093Z,102204.59
2018-02-24T20:27:58.644Z,102203.87
2018-02-24T20:30:26.215Z,102209.27
2018-02-24T20:32:53.973Z,102216.23
2018-02-24T20:35:21.491Z,102214.14
2018-02-24T20:37:48.997Z,102212.95
2018-02-24T20:40:17.061Z,102227.14
2018-02-24T20:42:44.585Z,102228.89
2018-02-24T20:45:12.097Z,102231.03
2018-02-24T20:47:39.601Z,102234.41
2018-02-24T20:50:07.099Z,102227.86
2018-02-24T20:52:34.611Z,102234.66
2018-02-24T20:55:02.267Z,102234.19
2018-02-24T20:57:29.808Z,102232.00
2018-02-24T20:59:57.367Z,102234.20
2018-02-24T21:02:24.896Z,102237.17
2018-02-24T21:04:52.769Z,102237.00
2018-02-24T21:07:20.266Z,102238.67
2018-02-24T21:09:47.830Z,102240.23
2018-02-24T21:12:15.472Z,102241.34
2018-02-24T21:14:42.970Z,102235.29
2018-02-24T21:17:10.482Z,102241.40
2018-02-24T21:19:37.962Z,102248.67
2018-02-24T21:22:05.531Z,102250.08
2018-02-24T21:24:33.043Z,102252.44
2018-02-24T21:27:00.550Z,102247.67
2018-02-24T21:29:28.119Z,102247.63
2018-02-24T21:31:55.646Z,102251.88
2018-02-24T21:34:23.145Z,102246.23
2018-02-24T21:36:50.635Z,102254.06
2018-02-24T21:39:18.141Z,102254.06
2018-02-24T21:41:45.665Z,102255.87
2018-02-24T21:44:13.208Z,102264.22
2018-02-24T21:46:40.721Z,102263.70
2018-02-24T21:49:08.345Z,102269.19
2018-02-24T21:51:35.858Z,102262.88
2018-02-24T21:54:03.355Z,102263.05
2018-02-24T21:56:30.845Z,102258.59
2018-02-24T21:58:58.356Z,102265.90
2018-02-24T22:01:25.932Z,102270.47
2018-02-24T22:03:53.432Z,102270.36
2018-02-24T22:06:20.977Z,102266.56
2018-02-24T22:08:48.494Z,102275.59
2018-02-24T22:11:16.013Z,102275.83
2018-02-24T22:13:43.548Z,102276.80
2018-02-24T22:16:11.035Z,102283.38
2018-02-24T22:18:38.543Z,102292.25
2018-02-24T22:21:06.049Z,102290.25
2018-02-24T22:23:33.573Z,102294.47
2018-02-24T22:26:01.079Z,102300.53
2018-02-24T22:28:28.598Z,102299.55
2018-02-24T22:30:56.929Z,102304.27
2018-02-24T22:33:24.509Z,102302.59
2018-02-24T22:35:52.001Z,102301.05
2018-02-24T22:38:19.478Z,102308.83
2018-02-24T22:40:46.987Z,102308.94
2018-02-24T22:43:14.507Z,102302.80
2018-02-24T22:45:42.016Z,102312.47
2018-02-24T22:48:15.176Z,102304.04
2018-02-24T22:50:42.683Z,102298.98
2018-02-24T22:53:10.232Z,102304.53
2018-02-24T22:55:37.913Z,102303.44
2018-02-24T22:58:05.464Z,102303.88
2018-02-24T23:00:32.992Z,102306.63
2018-02-24T23:03:00.482Z,102302.63
2018-02-24T23:05:27.964Z,102311.53
2018-02-24T23:07:55.490Z,102300.94
2018-02-24T23:10:22.994Z,102306.63
2018-02-24T23:12:50.499Z,102311.73
2018-02-24T23:15:17.994Z,102308.52
2018-02-24T23:17:45.528Z,102312.98
2018-02-24T23:20:13.043Z,102312.96
2018-02-24T23:22:40.569Z,102312.92
2018-02-24T23:25:08.059Z,102296.92
2018-02-24T23:27:35.564Z,102301.70
2018-02-24T23:30:03.107Z,102307.48
2018-02-24T23:32:30.597Z,102303.96
2018-02-24T23:34:58.105Z,102297.07
2018-02-24T23:37:25.595Z,102303.67
2018-02-24T23:39:53.266Z,102304.11
2018-02-24T23:42:20.834Z,102305.00
2018-02-24T23:44:48.316Z,102304.33
2018-02-24T23:47:15.830Z,102310.97
2018-02-24T23:49:43.517Z,102306.52
2018-02-24T23:52:11.007Z,102298.22
2018-02-24T23:54:38.496Z,102302.06
2018-02-24T23:57:06.185Z,102300.72
2018-02-24T23:59:33.694Z,102302.79
